• Join FlightAware (Why Join?)
  • Login
  • US Flag 
11:11AM EST


 

Airport Tracker/Info


-or-


 

Live Flight TrackerFlight Track Log ✈ UAL252 ✈ 22-Jun-2013 ✈ KLAX - KEWR

Flight Track Log - Related Links

Times and Time Zones

All times are in EDT time to prevent confusion due to time zone crossing. See the UAL252 flight status page for this flight to view local times or setup timezone preferences in your user account.

Time Position Orientation Groundspeed Altitude Reporting Facility
EDT Latitude Longitude Course Direction KTS MPH feet Rate Location/Type
05:53PM 33.9333 -118.4333 253° West 184 212 1,500  Level Southern California TRACON
05:54PM 33.9167 -118.5000 253° West 228 262 4,000 2,220 Climbing Southern California TRACON
05:55PM 33.8667 -118.5167 195° South 290 334 6,000 2,340 Climbing Southern California TRACON
05:56PM 33.9056 -118.4406 195° South 271 312 9,200 2,220 Climbing Los Angeles Center
05:57PM 33.9644 -118.3806 40° Northeast 295 339 11,000 1,500 Climbing Los Angeles Center
05:58PM 34.0169 -118.2861 56° Northeast 327 376 12,700 1,740 Climbing Los Angeles Center
05:59PM 34.0872 -118.1642 55° Northeast 358 412 15,000 2,040 Climbing Los Angeles Center
06:00PM 34.1489 -118.0542 56° Northeast 383 441 17,000 1,860 Climbing Los Angeles Center
06:01PM 34.2117 -117.9439 55° Northeast 395 455 18,900 1,740 Climbing Los Angeles Center
06:02PM 34.2858 -117.8372 50° Northeast 407 468 20,600 1,620 Climbing Los Angeles Center
06:04PM 34.3617 -117.7292 50° Northeast 419 482 22,300 1,680 Climbing Los Angeles Center
06:05PM 34.4436 -117.6086 50° Northeast 435 501 24,100 1,500 Climbing Los Angeles Center
06:06PM 34.5225 -117.4950 50° Northeast 440 506 25,500 1,500 Climbing Los Angeles Center
06:07PM 34.6194 -117.3533 50° Northeast 458 527 27,200 1,500 Climbing Los Angeles Center
06:08PM 34.7025 -117.2333 50° Northeast 466 536 28,600 1,200 Climbing Los Angeles Center
06:09PM 34.7853 -117.1117 50° Northeast 471 542 29,800 1,200 Climbing Los Angeles Center
06:10PM 34.8692 -116.9869 51° Northeast 478 550 31,100 1,320 Climbing Los Angeles Center
06:11PM 34.9528 -116.8617 51° Northeast 479 551 32,600 1,440 Climbing Los Angeles Center
06:12PM 35.0539 -116.7125 50° Northeast 477 549 34,100 1,140 Climbing Los Angeles Center
06:13PM 35.1367 -116.5883 51° Northeast 476 548 35,000 420 Climbing Los Angeles Center
06:14PM 35.2208 -116.4656 50° Northeast 474 545 35,000  Level Los Angeles Center
06:15PM 35.3050 -116.3397 51° Northeast 478 550 35,000  Level Los Angeles Center
06:16PM 35.3881 -116.2133 51° Northeast 480 552 35,000  Level Los Angeles Center
06:17PM 35.4703 -116.0864 51° Northeast 477 549 35,000  Level Los Angeles Center
06:18PM 35.5714 -115.9361 50° Northeast 477 549 35,000  Level Los Angeles Center
06:19PM 35.6569 -115.8050 51° Northeast 476 548 35,000  Level Los Angeles Center
06:20PM 35.7392 -115.6800 51° Northeast 473 544 35,000  Level Los Angeles Center
06:21PM 35.8211 -115.5561 51° Northeast 470 541 35,000 120 Level Los Angeles Center
06:22PM 35.9019 -115.4325 51° Northeast 467 537 35,300 660 Climbing Los Angeles Center
06:23PM 35.9822 -115.3103 51° Northeast 464 534 36,400 780 Climbing Los Angeles Center
06:24PM 36.0797 -115.1606 51° Northeast 469 540 37,000 240 Climbing Los Angeles Center
06:25PM 36.1703 -115.0458 46° Northeast 469 540 37,000  Level Los Angeles Center
06:26PM 36.2589 -114.9269 47° Northeast 472 543 37,000  Level Los Angeles Center
06:27PM 36.3508 -114.8108 45° Northeast 473 544 37,000  Level Los Angeles Center
06:28PM 36.4231 -114.7181 46° Northeast 470 541 37,000  Level Los Angeles Center
06:29PM 36.5297 -114.5781 47° Northeast 466 536 37,000  Level Los Angeles Center
06:30PM 36.6197 -114.4619 46° Northeast 465 535 37,000  Level Los Angeles Center
06:31PM 36.7267 -114.3228 46° Northeast 463 533 37,000  Level Los Angeles Center
06:32PM 36.8028 -114.1906 54° Northeast 467 537 37,000  Level Los Angeles Center
06:33PM 36.8700 -114.0511 59° Northeast 469 540 37,000  Level Los Angeles Center
06:34PM 36.9369 -113.9100 59° Northeast 472 543 37,000  Level Los Angeles Center
06:35PM 37.0133 -113.7508 59° Northeast 469 540 37,000  Level Los Angeles Center
06:36PM 37.0797 -113.6108 59° Northeast 468 539 37,000  Level Los Angeles Center
06:37PM 37.1453 -113.4700 60° Northeast 468 539 37,000  Level Los Angeles Center
06:39PM 37.2117 -113.3292 59° Northeast 470 541 37,000  Level Los Angeles Center
06:40PM 37.2783 -113.1881 59° Northeast 471 542 37,000  Level Los Angeles Center
06:41PM 37.3444 -113.0478 59° Northeast 470 541 37,000  Level Los Angeles Center
06:42PM 37.4106 -112.9061 60° Northeast 474 545 37,000  Level Los Angeles Center
06:42PM 37.4603 -112.7936 61° Northeast 475 547 37,000  Level Salt Lake Center
06:43PM 37.5272 -112.6536 59° Northeast 478 550 37,000  Level Salt Lake Center
06:44PM 37.5931 -112.5133 59° Northeast 473 544 37,000  Level Salt Lake Center
06:45PM 37.6594 -112.3708 59° Northeast 474 545 37,000  Level Salt Lake Center
06:46PM 37.7300 -112.2322 57° Northeast 472 543 37,000  Level Salt Lake Center
06:47PM 37.8233 -112.0744 53° Northeast 469 540 37,000  Level Salt Lake Center
06:48PM 37.9003 -111.9422 54° Northeast 468 539 37,000  Level Salt Lake Center
06:49PM 37.9764 -111.8083 54° Northeast 469 540 37,000  Level Salt Lake Center
06:50PM 38.0536 -111.6756 54° Northeast 470 541 37,000  Level Salt Lake Center
06:51PM 38.1306 -111.5406 54° Northeast 473 544 37,000  Level Salt Lake Center
06:52PM 38.2069 -111.4056 54° Northeast 472 543 37,000  Level Salt Lake Center
06:54PM 38.2822 -111.2703 55° Northeast 470 541 37,000  Level Salt Lake Center
06:55PM 38.3600 -111.1350 54° Northeast 474 545 37,000  Level Salt Lake Center
06:56PM 38.4500 -110.9708 55° Northeast 472 543 37,000  Level Salt Lake Center
06:57PM 38.5169 -110.8522 54° Northeast 474 545 37,000  Level Salt Lake Center
06:58PM 38.6017 -110.6992 55° Northeast 472 543 37,000  Level Salt Lake Center
06:59PM 38.6981 -110.5214 55° Northeast 472 543 37,000  Level Denver Center
07:00PM 38.7594 -110.4125 54° Northeast 476 548 37,000  Level Salt Lake Center
07:01PM 38.8331 -110.2794 55° Northeast 477 549 37,000  Level Salt Lake Center
07:02PM 38.9053 -110.1442 56° Northeast 479 551 37,000  Level Salt Lake Center
07:03PM 38.9900 -109.9869 55° Northeast 480 552 37,000  Level Salt Lake Center
07:04PM 39.0633 -109.8525 55° Northeast 479 551 37,000  Level Salt Lake Center
07:05PM 39.1469 -109.6931 56° Northeast 482 555 37,000  Level Salt Lake Center
07:06PM 39.2197 -109.5569 55° Northeast 481 554 37,000  Level Salt Lake Center
07:07PM 39.2922 -109.4208 55° Northeast 481 554 37,000  Level Salt Lake Center
07:08PM 39.3761 -109.2606 56° Northeast 483 556 37,000  Level Salt Lake Center
07:09PM 39.4494 -109.1225 55° Northeast 486 559 37,000  Level Salt Lake Center
07:10PM 39.5333 -108.9625 56° Northeast 482 555 37,000  Level Salt Lake Center
07:11PM 39.6050 -108.8258 56° Northeast 481 554 37,000  Level Salt Lake Center
07:12PM 39.6858 -108.6711 56° Northeast 491 565 37,000  Level Salt Lake Center
07:13PM 39.7578 -108.5325 56° Northeast 489 563 37,000  Level Salt Lake Center
07:14PM 39.8411 -108.3700 56° Northeast 485 558 37,000  Level Salt Lake Center
07:15PM 39.9136 -108.2311 56° Northeast 485 558 37,000  Level Salt Lake Center
07:16PM 39.9975 -108.0675 56° Northeast 486 559 37,000  Level Salt Lake Center
07:17PM 40.0672 -107.9244 57° Northeast 487 560 37,000  Level Salt Lake Center
07:18PM 40.1183 -107.7064 73° East 487 560 37,000  Level Denver Center
07:19PM 40.1553 -107.5447 73° East 485 558 37,000  Level Denver Center
07:20PM 40.1978 -107.3569 73° East 483 556 37,000  Level Denver Center
07:21PM 40.2272 -107.2242 74° East 478 550 37,000  Level Denver Center
07:22PM 40.2769 -107.0108 73° East 479 551 37,000  Level Denver Center
07:23PM 40.3156 -106.8411 73° East 478 550 37,000  Level Denver Center
07:24PM 40.3528 -106.6722 74° East 480 552 37,000  Level Denver Center
07:26PM 40.3892 -106.5008 74° East 483 556 37,000  Level Denver Center
07:27PM 40.4236 -106.3381 74° East 484 557 37,000  Level Denver Center
07:28PM 40.4656 -106.1553 73° East 487 560 37,000  Level Denver Center
07:29PM 40.5014 -105.9844 75° East 485 558 37,000  Level Denver Center
07:30PM 40.5367 -105.8122 75° East 488 562 37,000  Level Denver Center
07:31PM 40.5722 -105.6419 75° East 485 558 37,000  Level Denver Center
07:32PM 40.6061 -105.4786 75° East 472 543 37,000  Level Denver Center
07:33PM 40.6467 -105.2856 74° East 460 529 37,000  Level Denver Center
07:34PM 40.6792 -105.1283 75° East 451 519 37,000  Level Denver Center
07:35PM 40.7117 -104.9700 75° East 447 514 37,000  Level Denver Center
07:36PM 40.7425 -104.8156 75° East 440 506 37,000  Level Denver Center
07:37PM 40.7733 -104.6608 75° East 437 503 37,000  Level Denver Center
07:38PM 40.8031 -104.5058 76° East 436 502 37,000  Level Denver Center
07:39PM 40.8353 -104.3506 75° East 438 504 37,000  Level Denver Center
07:40PM 40.8667 -104.1908 75° East 448 516 37,000  Level Denver Center
07:41PM 40.9047 -103.9939 76° East 460 529 37,000  Level Denver Center
07:42PM 40.9372 -103.8242 76° East 473 544 37,000  Level Denver Center
07:43PM 40.9600 -103.6494 80° East 480 552 37,000  Level Denver Center
07:44PM 40.9769 -103.4722 83° East 485 558 37,000  Level Denver Center
07:45PM 40.9928 -103.3003 83° East 484 557 37,000  Level Denver Center
07:46PM 41.0131 -103.1011 82° East 487 560 37,000  Level Denver Center
07:47PM 41.0331 -102.9089 82° East 498 573 37,000  Level Denver Center
07:48PM 41.0486 -102.7342 83° East 500 575 37,000  Level Denver Center
07:49PM 41.0686 -102.5292 83° East 503 579 37,000  Level Denver Center
07:50PM 41.0842 -102.3544 83° East 500 575 37,000  Level Denver Center
07:51PM 41.1000 -102.1814 83° East 494 568 37,000  Level Denver Center
07:52PM 41.1183 -101.9858 83° East 480 552 37,000  Level Denver Center
07:53PM 41.1322 -101.8225 84° East 468 539 37,000  Level Denver Center
07:54PM 41.1481 -101.6289 84° East 472 543 37,000  Level Denver Center
07:55PM 41.1650 -101.4597 82° East 480 552 37,000  Level Denver Center
07:56PM 41.2119 -101.2664 72° East 490 564 37,000  Level Denver Center
07:57PM 41.2547 -101.1006 71° East 492 566 37,000  Level Denver Center
07:58PM 41.3008 -100.9336 70° East 498 573 37,000  Level Denver Center
07:59PM 41.3556 -100.7408 69° East 496 571 37,000  Level Denver Center
08:00PM 41.4039 -100.5778 68° East 493 567 37,000  Level Denver Center
08:02PM 41.4606 -100.3883 68° East 491 565 37,000  Level Denver Center
08:03PM 41.5106 -100.2278 67° East 489 563 37,000  Level Denver Center
08:04PM 41.5767 -100.0136 68° East 488 562 37,000  Level Denver Center
08:05PM 41.6261 -99.8522 68° East 489 563 37,000  Level Denver Center
08:06PM 41.6750 -99.6975 67° East 489 563 37,000  Level Denver Center
08:07PM 41.7400 -99.4978 66° East 487 560 37,000  Level Denver Center
08:08PM 41.7947 -99.3297 66° East 489 563 37,000  Level Denver Center
08:09PM 41.8442 -99.1581 69° East 490 564 37,000  Level Denver Center
08:10PM 41.8700 -98.9794 79° East 495 570 37,000  Level Denver Center
08:11PM 41.8631 -98.7994 93° East 480 552 37,000  Level Denver Center
08:12PM 41.8522 -98.6183 95° East 483 556 37,000  Level Denver Center
08:13PM 41.8417 -98.4392 94° East 481 554 37,000  Level Denver Center
08:14PM 41.8258 -98.1869 95° East 484 557 37,000  Level Minneapolis Center
08:15PM 41.8142 -97.9956 95° East 486 559 37,000  Level Minneapolis Center
08:16PM 41.8019 -97.8150 95° East 486 559 37,000  Level Minneapolis Center
08:17PM 41.7886 -97.6344 96° East 487 560 37,000  Level Minneapolis Center
08:18PM 41.7764 -97.4533 95° East 489 563 37,000  Level Minneapolis Center
08:20PM 41.7639 -97.2742 95° East 485 558 37,000  Level Minneapolis Center
08:21PM 41.7494 -97.0964 96° East 482 555 37,000  Level Minneapolis Center
08:22PM 41.7369 -96.9189 95° East 480 552 37,000  Level Minneapolis Center
08:23PM 41.7231 -96.7433 96° East 475 547 37,000  Level Minneapolis Center
08:24PM 41.7064 -96.5358 96° East 467 537 37,000  Level Minneapolis Center
08:25PM 41.6928 -96.3639 96° East 464 534 37,000  Level Minneapolis Center
08:26PM 41.6789 -96.1914 96° East 463 533 37,000  Level Minneapolis Center
08:27PM 41.6633 -96.0175 97° East 465 535 37,000  Level Minneapolis Center
08:28PM 41.6492 -95.8581 97° East 466 536 37,000  Level Minneapolis Center
08:29PM 41.6339 -95.6839 97° East 469 540 37,000  Level Minneapolis Center
08:30PM 41.6172 -95.4906 97° East 475 547 37,000  Level Minneapolis Center
08:31PM 41.6197 -95.3125 89° East 479 551 37,000  Level Minneapolis Center
08:32PM 41.6347 -95.1344 84° East 480 552 37,000  Level Minneapolis Center
08:33PM 41.6469 -94.9586 85° East 476 548 37,000  Level Minneapolis Center
08:34PM 41.6594 -94.7831 84° East 474 545 37,000  Level Minneapolis Center
08:35PM 41.6731 -94.6089 84° East 471 542 37,000  Level Minneapolis Center
08:36PM 41.6875 -94.4006 85° East 468 539 37,000  Level Minneapolis Center
08:37PM 41.6989 -94.2283 85° East 465 535 37,000  Level Minneapolis Center
08:38PM 41.7103 -94.0603 85° East 456 525 37,000  Level Minneapolis Center
08:39PM 41.7208 -93.8925 85° East 453 521 37,000  Level Minneapolis Center
08:40PM 41.7311 -93.7244 85° East 453 521 37,000  Level Minneapolis Center
08:41PM 41.7419 -93.5586 85° East 451 519 37,000  Level Minneapolis Center
08:42PM 41.7517 -93.3944 85° East 448 516 37,000  Level Minneapolis Center
08:43PM 41.7628 -93.2322 85° East 444 511 37,000  Level Minneapolis Center
08:44PM 41.7731 -93.0358 86° East 444 511 37,000  Level Minneapolis Center
08:45PM 41.7822 -92.8697 86° East 447 514 37,000  Level Minneapolis Center
08:46PM 41.7914 -92.7017 86° East 446 513 37,000  Level Minneapolis Center
08:47PM 41.8006 -92.5422 86° East 440 506 37,000  Level Minneapolis Center
08:48PM 41.8086 -92.3814 86° East 437 503 37,000  Level Minneapolis Center
08:49PM 41.8172 -92.2208 86° East 438 504 37,000  Level Minneapolis Center
08:50PM 41.8256 -92.0547 86° East 444 511 37,000  Level Minneapolis Center
08:51PM 41.8350 -91.8528 86° East 452 520 37,000  Level Minneapolis Center
08:52PM 41.8425 -91.7028 86° East 454 522 37,000  Level Minneapolis Center
08:54PM 41.8522 -91.4767 87° East 463 533 37,000  Level Chicago Center
08:55PM 41.8583 -91.3081 87° East 460 529 37,000  Level Chicago Center
08:56PM 41.8667 -91.1078 87° East 456 525 37,000  Level Chicago Center
08:57PM 41.8725 -90.9411 87° East 454 522 37,000  Level Chicago Center
08:58PM 41.8792 -90.7744 87° East 455 524 37,000  Level Chicago Center
08:59PM 41.8853 -90.6061 87° East 457 526 37,000  Level Chicago Center
09:00PM 41.8922 -90.4067 87° East 454 522 37,000  Level Chicago Center
09:01PM 41.8978 -90.2381 87° East 457 526 37,000  Level Chicago Center
09:02PM 41.9033 -90.0692 87° East 459 528 37,000  Level Chicago Center
09:03PM 41.9089 -89.8897 88° East 454 522 37,000  Level Chicago Center
09:04PM 41.9131 -89.7217 88° East 455 524 37,000  Level Chicago Center
09:05PM 41.9183 -89.5522 88° East 458 527 37,000  Level Chicago Center
09:06PM 41.9233 -89.3808 88° East 462 532 37,000  Level Chicago Center
09:07PM 41.9275 -89.2125 88° East 455 524 37,000  Level Chicago Center
09:08PM 41.9306 -89.0433 89° East 456 525 37,000  Level Chicago Center
09:09PM 41.9356 -88.8425 88° East 457 526 37,000  Level Chicago Center
09:10PM 41.9392 -88.6731 88° East 457 526 37,000  Level Chicago Center
09:11PM 41.9406 -88.5083 89° East 448 516 37,000  Level Chicago Center
09:12PM 41.9439 -88.3425 88° East 444 511 37,000  Level Chicago Center
09:13PM 41.9453 -88.1744 89° East 449 517 37,000  Level Chicago Center
09:14PM 41.9478 -88.0044 89° East 454 522 37,000  Level Chicago Center
09:15PM 41.9486 -87.8386 90° East 448 516 37,000  Level Chicago Center
09:16PM 41.9503 -87.6719 89° East 447 514 37,000  Level Chicago Center
09:17PM 41.9528 -87.4717 89° East 449 517 37,000  Level Chicago Center
09:18PM 41.9547 -87.3036 89° East 450 518 37,000  Level Chicago Center
09:19PM 41.9556 -87.1361 90° East 450 518 37,000  Level Chicago Center
09:20PM 41.9561 -86.9694 90° East 449 517 37,000  Level Chicago Center
09:21PM 41.9569 -86.8031 90° East 449 517 37,000  Level Chicago Center
09:22PM 41.9569 -86.6231 90° East 447 514 37,000  Level Chicago Center
09:23PM 41.9569 -86.4553 90° East 449 517 37,000  Level Chicago Center
09:24PM 41.9575 -86.2889 90° East 447 514 37,000  Level Chicago Center
09:25PM 41.9578 -86.1233 90° East 444 511 37,000  Level Chicago Center
09:26PM 41.9575 -85.9578 90° East 444 511 37,000  Level Chicago Center
09:27PM 41.9556 -85.7919 91° East 442 509 37,000  Level Chicago Center
09:28PM 41.9547 -85.6269 90° East 441 507 37,000  Level Chicago Center
09:29PM 41.9533 -85.4614 91° East 440 506 37,000  Level Chicago Center
09:30PM 41.9531 -85.2956 90° East 440 506 37,000  Level Chicago Center
09:31PM 41.9508 -85.1281 91° East 447 514 37,000  Level Chicago Center
09:33PM 41.9514 -84.9608 90° East 446 513 37,000  Level Chicago Center
09:34PM 41.9497 -84.7636 91° East 440 506 37,000  Level Chicago Center
09:35PM 41.9483 -84.6008 91° East 439 505 37,000  Level Chicago Center
09:36PM 41.9481 -84.4369 90° East 437 503 37,000  Level Chicago Center
09:36PM 41.9497 -84.3664 88° East 443 510 37,000  Level Cleveland Center
09:37PM 41.9406 -84.1928 94° East 438 504 37,000  Level Cleveland Center
09:38PM 41.9394 -84.0308 90° East 433 498 37,000  Level Cleveland Center
09:39PM 41.9378 -83.8689 91° East 427 491 37,000  Level Cleveland Center
09:40PM 41.9342 -83.7067 92° East 432 497 37,000  Level Cleveland Center
09:41PM 41.9364 -83.5419 89° East 432 497 37,000  Level Cleveland Center
09:42PM 41.9336 -83.3994 91° East 432 497 37,000  Level Cleveland Center
09:43PM 41.9333 -83.2350 90° East 437 503 37,000  Level Cleveland Center
09:44PM 41.9308 -83.0672 91° East 443 510 37,000  Level Cleveland Center
09:45PM 41.9281 -82.9025 91° East 443 510 37,000  Level Cleveland Center
09:46PM 41.9272 -82.7350 90° East 443 510 37,000  Level Cleveland Center
09:47PM 41.9261 -82.5675 90° East 443 510 37,000  Level Cleveland Center
09:48PM 41.9206 -82.4025 93° East 443 510 37,000  Level Cleveland Center
09:49PM 41.9189 -82.2353 91° East 443 510 37,000  Level Cleveland Center
09:50PM 41.9192 -82.0508 90° East 443 510 37,000  Level Cleveland Center
09:51PM 41.9172 -81.8836 91° East 443 510 37,000  Level Cleveland Center
09:52PM 41.9064 -81.7158 95° East 448 516 37,000  Level Cleveland Center
09:53PM 41.8914 -81.5483 97° East 448 516 37,000  Level Cleveland Center
09:54PM 41.8781 -81.3781 96° East 448 516 37,000  Level Cleveland Center
09:55PM 41.8622 -81.2272 98° East 448 516 37,000  Level Cleveland Center
09:56PM 41.8483 -81.0653 97° East 443 510 37,000  Level Cleveland Center
09:57PM 41.8325 -80.9008 97° East 448 516 37,000  Level Cleveland Center
09:58PM 41.8161 -80.7364 98° East 448 516 37,000  Level Cleveland Center
09:59PM 41.7975 -80.5581 98° East 448 516 37,000  Level Cleveland Center
10:00PM 41.7806 -80.3911 98° East 448 516 37,000  Level Cleveland Center
10:01PM 41.7656 -80.2267 97° East 448 516 37,000  Level Cleveland Center
10:02PM 41.7461 -80.0600 99° East 448 516 37,000  Level Cleveland Center
10:03PM 41.7308 -79.8931 97° East 448 516 37,000  Level Cleveland Center
10:04PM 41.7128 -79.7264 98° East 448 516 37,000  Level Cleveland Center
10:05PM 41.6950 -79.5625 98° East 448 516 37,000  Level Cleveland Center
10:06PM 41.6786 -79.3933 97° East 448 516 37,000  Level Cleveland Center
10:07PM 41.6581 -79.2325 100° East 448 516 37,000  Level Cleveland Center
10:08PM 41.6414 -79.0661 98° East 448 516 37,000 -120 Level Cleveland Center
10:09PM 41.6225 -78.8997 99° East 448 516 36,800 -720 Descending Cleveland Center
10:10PM 41.6053 -78.7392 98° East 448 516 35,600 -1,140 Descending Cleveland Center
10:12PM 41.5667 -78.4211 99° East 437 503 33,500 -1,020 Descending New York Center
10:13PM 41.5497 -78.2611 98° East 437 503 32,600 -900 Descending New York Center
10:14PM 41.5267 -78.0950 100° East 437 503 31,700 -840 Descending New York Center
10:15PM 41.5072 -77.9350 99° East 437 503 31,000 -360 Descending New York Center
10:16PM 41.4858 -77.7719 100° East 437 503 31,000  Level New York Center
10:17PM 41.4600 -77.6058 102° East 437 503 31,000  Level New York Center
10:18PM 41.4333 -77.4150 100° East 459 528 31,000  Level New York Center
10:19PM 41.4075 -77.2436 101° East 465 535 31,000  Level New York Center
10:20PM 41.3814 -77.0697 101° East 475 547 31,000 -540 Level New York Center
10:21PM 41.3550 -76.8986 102° East 475 547 30,000 -1,680 Descending New York Center
10:22PM 41.3258 -76.7328 103° East 470 541 27,700 -2,280 Descending New York Center
10:23PM 41.2836 -76.5772 110° East 457 526 25,500 -2,160 Descending New York Center
10:24PM 41.2444 -76.4414 111° Southeast 445 512 23,400 -2,040 Descending New York Center
10:25PM 41.2056 -76.2919 109° East 433 498 21,400 -1,980 Descending New York Center
10:26PM 41.1664 -76.1483 110° East 419 482 19,500 -2,040 Descending New York Center
10:27PM 41.1292 -76.0019 109° East 391 450 17,400 -2,100 Descending New York Center
10:28PM 41.0914 -75.8669 110° East 391 450 15,300 -1,860 Descending New York Center
10:29PM 41.0608 -75.7492 109° East 385 443 13,700 -1,200 Descending New York Center
10:30PM 41.0244 -75.6200 110° East 375 432 12,900 -960 Descending New York Center
10:31PM 40.9842 -75.4822 111° Southeast 369 425 11,800 -1,200 Descending New York Center
10:32PM 40.9514 -75.3647 110° East 357 411 10,600 -960 Descending New York Center
10:33PM 40.9222 -75.2583 110° East 324 373 9,900 -840 Descending New York Center
10:34PM 40.8986 -75.1661 109° East 295 339 9,000 -1,020 Descending New York Center
10:35PM 40.8689 -75.0683 112° Southeast 295 339 8,000 -960 Descending New York Center
10:36PM 40.8436 -74.9569 107° East 295 339 7,100 -540 Descending New York Center
10:37PM 40.8428 -74.8636 91° East 289 333 7,000 -660 Descending New York Center
10:38PM 40.8425 -74.7456 90° East 289 333 5,900 -1,020 Descending New York Center
10:39PM 40.8436 -74.6525 89° East 289 333 5,000 -480 Descending New York Center
10:40PM 40.8500 -74.5667 84° East 284 327 5,100 60 Climbing New York TRACON
10:41PM 40.8500 -74.4667 90° East 282 325 5,100  Level New York TRACON
10:42PM 40.8500 -74.3667 90° East 281 323 5,100  Level New York TRACON
10:43PM 40.8500 -74.2667 90° East 281 323 5,100 -240 Level New York TRACON
10:44PM 40.8500 -74.1667 90° East 280 322 4,700 -420 Descending New York TRACON